Time;durP1;ratioP1;P1;durP2;ratioP2;P2;SDS_P1;SDS_P2;PMS_P1;PMS_P2;Temp;Humidity;BMP_temperature;BMP_pressure;BME280_temperature;BME280_humidity;BME280_pressure;Samples;Min_cycle;Max_cycle;Signal;HPM_P1;HPM_P2
2023/07/14 00:00:39;;;;;;;4.95;1.90;;;16.30;63.90;;;;;;5073018;28;20016;-74
2023/07/14 00:03:06;;;;;;;4.68;2.10;;;16.30;63.40;;;;;;5073184;28;20025;-74
2023/07/14 00:05:35;;;;;;;4.90;1.88;;;16.20;63.80;;;;;;5072992;28;20133;-74
2023/07/14 00:08:03;;;;;;;3.17;1.67;;;16.20;64.20;;;;;;5072803;28;20056;-74
2023/07/14 00:10:32;;;;;;;5.65;2.00;;;16.20;64.00;;;;;;5072964;28;20032;-73
2023/07/14 00:12:59;;;;;;;7.30;2.25;;;16.20;64.20;;;;;;5072856;28;20055;-73
2023/07/14 00:15:26;;;;;;;4.63;2.22;;;16.20;64.00;;;;;;5073001;28;20111;-75
2023/07/14 00:18:09;;;;;;;3.70;1.77;;;16.10;64.20;;;;;;5073118;28;20120;-75
2023/07/14 00:20:35;;;;;;;5.30;2.30;;;16.20;64.30;;;;;;5056365;28;20047;-74
2023/07/14 00:23:00;;;;;;;4.70;1.77;;;16.20;65.00;;;;;;5072931;28;20032;-75
2023/07/14 00:25:27;;;;;;;4.72;2.55;;;16.20;65.10;;;;;;5072803;28;20023;-75
2023/07/14 00:27:55;;;;;;;6.55;2.08;;;16.10;64.20;;;;;;5072789;28;20024;-75
2023/07/14 00:30:25;;;;;;;3.00;1.85;;;16.10;64.40;;;;;;5072612;28;20024;-74
2023/07/14 00:32:54;;;;;;;7.47;2.45;;;16.00;64.60;;;;;;5072476;28;20040;-74
2023/07/14 00:35:26;;;;;;;7.47;2.42;;;15.90;65.80;;;;;;5072392;28;20496;-74
2023/07/14 00:37:55;;;;;;;4.82;2.22;;;15.90;65.20;;;;;;5072680;28;20028;-75
2023/07/14 00:40:30;;;;;;;4.07;2.03;;;15.80;65.40;;;;;;5072467;28;20025;-74
2023/07/14 00:42:58;;;;;;;6.03;2.15;;;15.70;65.90;;;;;;5072326;28;20047;-74
2023/07/14 00:45:26;;;;;;;5.85;2.55;;;15.70;66.40;;;;;;5072232;28;20073;-75
2023/07/14 00:47:57;;;;;;;7.50;2.00;;;15.70;66.00;;;;;;5072352;28;20029;-74
2023/07/14 00:50:34;;;;;;;8.13;2.25;;;15.80;65.50;;;;;;5072322;28;20162;-73
2023/07/14 00:53:04;;;;;;;6.35;2.03;;;15.80;65.30;;;;;;5072035;28;20043;-73
2023/07/14 00:55:43;;;;;;;4.15;1.90;;;15.70;65.70;;;;;;5071829;28;20024;-73
2023/07/14 00:58:22;;;;;;;7.57;2.22;;;15.70;65.80;;;;;;5072107;28;20063;-75
2023/07/14 01:00:59;;;;;;;6.05;2.28;;;15.70;66.00;;;;;;5072149;28;20048;-74
2023/07/14 01:03:25;;;;;;;6.65;2.00;;;15.70;65.80;;;;;;5072295;28;20021;-74
2023/07/14 01:05:52;;;;;;;3.90;1.92;;;15.70;66.20;;;;;;5078264;28;20480;-75
2023/07/14 01:08:21;;;;;;;5.05;1.90;;;15.70;66.50;;;;;;5072235;28;20025;-74
2023/07/14 01:10:47;;;;;;;7.05;2.22;;;15.70;65.90;;;;;;5071954;28;20028;-75
2023/07/14 01:13:13;;;;;;;6.32;2.05;;;15.80;66.80;;;;;;5072122;28;20060;-73
2023/07/14 01:15:41;;;;;;;5.57;2.08;;;15.80;65.60;;;;;;5071985;28;20024;-74
2023/07/14 01:18:08;;;;;;;3.90;2.08;;;15.90;66.50;;;;;;5071804;28;20119;-74
2023/07/14 01:20:37;;;;;;;4.45;1.85;;;15.90;65.50;;;;;;5071665;28;20049;-73
2023/07/14 01:23:23;;;;;;;6.22;2.28;;;15.90;65.30;;;;;;5071625;28;20044;-74
2023/07/14 01:26:07;;;;;;;5.97;2.22;;;15.80;65.30;;;;;;5071762;28;20495;-74
2023/07/14 01:28:33;;;;;;;3.70;1.85;;;15.70;65.50;;;;;;5071929;28;20020;-73
2023/07/14 01:30:59;;;;;;;5.75;2.00;;;15.70;65.50;;;;;;5071415;28;20023;-74
2023/07/14 01:33:25;;;;;;;5.90;2.03;;;15.70;66.00;;;;;;5071410;28;20075;-74
2023/07/14 01:35:54;;;;;;;5.65;2.40;;;15.70;66.10;;;;;;5071409;28;20101;-74
2023/07/14 01:38:21;;;;;;;5.13;1.92;;;15.70;66.30;;;;;;5071600;28;20032;-74
2023/07/14 01:40:46;;;;;;;5.45;2.05;;;15.70;66.10;;;;;;5071507;28;20388;-73
2023/07/14 01:43:12;;;;;;;3.10;1.90;;;15.80;65.90;;;;;;5071545;28;20024;-73
2023/07/14 01:45:54;;;;;;;7.13;2.13;;;15.80;65.80;;;;;;5071513;28;20021;-74
2023/07/14 01:48:24;;;;;;;3.78;2.33;;;15.80;65.50;;;;;;5071614;28;20074;-74
2023/07/14 01:50:54;;;;;;;6.18;2.55;;;15.70;65.70;;;;;;5071708;28;20028;-74
2023/07/14 01:53:36;;;;;;;4.15;2.25;;;15.50;66.00;;;;;;5071598;28;20036;-74
2023/07/14 01:56:05;;;;;;;6.05;2.53;;;15.50;66.30;;;;;;5071628;28;20063;-74
2023/07/14 01:58:36;;;;;;;4.03;2.10;;;15.40;66.60;;;;;;5071180;28;20440;-74
2023/07/14 02:01:03;;;;;;;4.53;2.17;;;15.40;66.50;;;;;;5071627;28;20017;-73
2023/07/14 02:03:46;;;;;;;6.25;2.05;;;15.30;66.50;;;;;;5071296;28;20044;-74
2023/07/14 02:06:12;;;;;;;9.70;2.70;;;15.20;66.80;;;;;;5072561;28;20020;-74
2023/07/14 02:08:38;;;;;;;5.72;2.42;;;15.10;67.40;;;;;;5075415;28;20035;-74
2023/07/14 02:11:04;;;;;;;6.85;2.22;;;15.10;68.00;;;;;;5075162;28;20052;-73
2023/07/14 02:13:32;;;;;;;5.13;2.00;;;15.00;67.90;;;;;;5075296;28;20032;-74
2023/07/14 02:15:58;;;;;;;6.68;2.25;;;15.00;68.30;;;;;;5074984;28;20025;-74
2023/07/14 02:18:27;;;;;;;5.47;2.30;;;15.00;67.80;;;;;;5075061;28;20025;-74
2023/07/14 02:20:55;;;;;;;8.23;2.03;;;14.90;68.00;;;;;;5074827;28;20097;-74
2023/07/14 02:23:23;;;;;;;7.93;2.63;;;14.90;67.70;;;;;;5074952;28;20085;-74
2023/07/14 02:26:06;;;;;;;5.43;2.28;;;15.00;67.70;;;;;;5075034;28;20024;-74
2023/07/14 02:28:31;;;;;;;4.10;1.98;;;15.00;67.40;;;;;;5075179;28;20503;-74
2023/07/14 02:31:22;;;;;;;7.38;2.50;;;15.00;67.70;;;;;;5074897;28;20069;-74
2023/07/14 02:33:49;;;;;;;8.32;2.85;;;15.10;67.60;;;;;;5074697;28;20033;-74
2023/07/14 02:36:43;;;;;;;4.43;2.08;;;15.00;67.80;;;;;;5074832;28;20541;-74
2023/07/14 02:39:09;;;;;;;7.05;2.45;;;15.10;67.70;;;;;;5074719;28;20472;-73
2023/07/14 02:41:38;;;;;;;3.58;2.35;;;15.10;67.80;;;;;;5074701;28;20070;-74
2023/07/14 02:44:08;;;;;;;3.53;2.10;;;15.10;67.70;;;;;;5074664;28;20025;-74
2023/07/14 02:46:46;;;;;;;3.75;1.90;;;15.20;67.50;;;;;;5074568;28;20029;-73
2023/07/14 02:49:12;;;;;;;6.28;2.40;;;15.20;67.40;;;;;;5074778;28;20063;-74
2023/07/14 02:51:38;;;;;;;7.03;1.95;;;15.20;67.30;;;;;;5074451;28;20032;-74
2023/07/14 02:54:05;;;;;;;5.55;2.30;;;15.00;67.70;;;;;;5074360;28;20028;-73
2023/07/14 02:56:31;;;;;;;5.53;2.00;;;14.90;68.10;;;;;;5075762;28;20357;-73
2023/07/14 02:58:57;;;;;;;5.82;2.30;;;14.90;68.10;;;;;;5074231;28;20392;-73
2023/07/14 03:01:23;;;;;;;3.58;2.30;;;14.90;68.20;;;;;;5074508;28;20016;-74
2023/07/14 03:03:49;;;;;;;8.38;2.45;;;14.90;68.30;;;;;;5074404;28;20119;-74
2023/07/14 03:06:17;;;;;;;7.15;2.45;;;14.80;68.40;;;;;;5074179;28;20516;-74
2023/07/14 03:08:43;;;;;;;7.43;2.67;;;14.90;68.60;;;;;;5074052;28;20158;-73
2023/07/14 03:11:09;;;;;;;4.45;2.22;;;14.90;68.30;;;;;;5074215;28;20107;-73
2023/07/14 03:13:37;;;;;;;4.40;2.22;;;14.90;68.20;;;;;;5074035;28;20039;-73
2023/07/14 03:16:03;;;;;;;3.78;1.85;;;14.80;68.30;;;;;;5074189;28;20507;-74
2023/07/14 03:18:29;;;;;;;4.32;2.28;;;14.80;68.50;;;;;;5073646;28;20032;-73
2023/07/14 03:21:04;;;;;;;6.30;2.40;;;14.80;68.80;;;;;;5073801;28;20072;-74
2023/07/14 03:23:31;;;;;;;5.32;2.35;;;14.80;68.70;;;;;;5073902;28;20120;-74
2023/07/14 03:26:03;;;;;;;2.78;2.05;;;14.80;68.40;;;;;;5073490;28;20029;-74
2023/07/14 03:28:29;;;;;;;4.65;2.65;;;14.80;68.40;;;;;;5073956;28;20029;-74
2023/07/14 03:30:55;;;;;;;5.65;2.20;;;14.70;69.00;;;;;;5073914;28;20434;-74
2023/07/14 03:33:21;;;;;;;5.68;2.28;;;14.60;69.20;;;;;;5073282;28;20500;-74
2023/07/14 03:35:47;;;;;;;6.28;2.65;;;14.50;69.80;;;;;;5073502;28;20025;-74
2023/07/14 03:38:13;;;;;;;7.22;2.30;;;14.50;70.40;;;;;;5073466;28;20507;-73
2023/07/14 03:40:39;;;;;;;8.30;2.30;;;14.40;70.80;;;;;;5073325;28;20020;-74
2023/07/14 03:43:05;;;;;;;7.32;2.60;;;14.40;70.80;;;;;;5074716;28;20024;-74
2023/07/14 03:45:31;;;;;;;8.32;2.50;;;14.40;70.80;;;;;;5073381;28;20050;-74
2023/07/14 03:47:57;;;;;;;3.33;2.03;;;14.40;70.30;;;;;;5073371;28;20028;-74
2023/07/14 03:50:23;;;;;;;5.60;1.73;;;14.50;69.90;;;;;;5073237;28;20115;-74
2023/07/14 03:52:49;;;;;;;5.28;2.58;;;14.70;69.70;;;;;;5073216;28;20039;-74
2023/07/14 03:55:15;;;;;;;8.25;2.42;;;14.90;69.00;;;;;;5073367;28;20027;-74
2023/07/14 03:57:41;;;;;;;5.57;2.17;;;15.00;69.00;;;;;;5073329;28;20025;-74
2023/07/14 04:00:17;;;;;;;6.78;2.38;;;15.30;67.40;;;;;;5073290;28;20074;-75
2023/07/14 04:02:45;;;;;;;4.88;2.28;;;15.40;66.30;;;;;;5073141;28;20025;-76
2023/07/14 04:05:13;;;;;;;6.25;2.25;;;15.40;66.10;;;;;;5074391;28;20060;-74
2023/07/14 04:07:41;;;;;;;5.40;2.10;;;15.50;65.80;;;;;;5072895;28;20029;-73
2023/07/14 04:10:08;;;;;;;7.00;2.42;;;15.40;65.40;;;;;;5073110;28;20483;-74
2023/07/14 04:12:34;;;;;;;3.92;2.00;;;15.40;65.90;;;;;;5072987;28;20039;-74
2023/07/14 04:15:00;;;;;;;6.15;2.20;;;15.30;65.80;;;;;;5072933;28;20027;-74
2023/07/14 04:17:29;;;;;;;7.80;2.72;;;15.20;66.10;;;;;;5072947;28;20547;-74
2023/07/14 04:19:54;;;;;;;4.45;2.25;;;15.20;66.30;;;;;;5072632;28;20044;-75
2023/07/14 04:22:20;;;;;;;9.15;3.17;;;15.30;66.10;;;;;;5072277;28;20392;-74
2023/07/14 04:24:46;;;;;;;8.70;2.63;;;15.40;66.00;;;;;;5072903;28;20060;-74
2023/07/14 04:27:18;;;;;;;8.98;3.90;;;15.40;65.40;;;;;;5072552;28;20476;-74
2023/07/14 04:29:44;;;;;;;8.38;2.95;;;15.50;65.50;;;;;;5071627;28;20024;-74
2023/07/14 04:32:10;;;;;;;9.32;2.78;;;15.50;65.40;;;;;;5075815;28;20116;-75
2023/07/14 04:34:38;;;;;;;6.40;2.28;;;15.50;65.40;;;;;;5072367;28;20097;-75
2023/07/14 04:37:04;;;;;;;9.10;2.67;;;15.40;65.70;;;;;;5072844;28;20020;-75
2023/07/14 04:39:31;;;;;;;8.65;2.70;;;15.40;65.50;;;;;;5077561;28;20552;-75
2023/07/14 04:41:56;;;;;;;4.15;2.25;;;15.30;66.10;;;;;;5072420;28;20460;-75
2023/07/14 04:44:22;;;;;;;7.65;3.22;;;15.30;66.40;;;;;;5072277;28;20033;-74
2023/07/14 04:46:48;;;;;;;8.25;2.72;;;15.30;67.30;;;;;;5072232;28;20025;-74
2023/07/14 04:49:17;;;;;;;6.05;2.20;;;15.30;66.30;;;;;;5071827;28;20039;-74
2023/07/14 04:51:43;;;;;;;5.50;2.38;;;15.30;66.10;;;;;;5072007;28;20028;-74
2023/07/14 04:54:09;;;;;;;5.35;2.38;;;15.30;66.00;;;;;;5072055;28;20052;-74
2023/07/14 04:56:36;;;;;;;6.30;2.30;;;15.30;65.90;;;;;;5073285;28;20461;-75
2023/07/14 04:59:04;;;;;;;9.30;2.70;;;15.40;65.80;;;;;;5055634;28;20044;-74
2023/07/14 05:01:30;;;;;;;6.80;2.22;;;15.40;65.60;;;;;;5071803;28;20023;-74
2023/07/14 05:03:56;;;;;;;5.45;2.22;;;15.60;65.10;;;;;;5072238;28;20024;-74
2023/07/14 05:06:22;;;;;;;8.38;2.47;;;15.60;64.60;;;;;;5072002;28;20063;-74
2023/07/14 05:08:47;;;;;;;7.47;2.92;;;15.70;64.50;;;;;;5072015;28;20024;-73
2023/07/14 05:11:13;;;;;;;5.57;2.15;;;15.80;64.10;;;;;;5071386;28;20028;-74
2023/07/14 05:13:39;;;;;;;5.68;2.20;;;16.00;63.40;;;;;;5071730;28;20033;-75
2023/07/14 05:16:04;;;;;;;6.53;2.30;;;16.20;63.20;;;;;;5071613;28;20028;-75
2023/07/14 05:18:30;;;;;;;6.00;2.42;;;16.30;62.60;;;;;;5071617;28;20035;-74
2023/07/14 05:21:00;;;;;;;4.90;2.20;;;16.60;61.90;;;;;;5071681;28;20123;-75
2023/07/14 05:23:27;;;;;;;8.38;2.65;;;16.80;60.90;;;;;;5071236;28;20029;-75
2023/07/14 05:25:54;;;;;;;6.57;2.20;;;17.00;60.50;;;;;;5054803;28;20029;-76
2023/07/14 05:28:19;;;;;;;6.00;2.15;;;17.20;59.10;;;;;;5071245;28;20032;-76
2023/07/14 05:30:45;;;;;;;6.25;2.20;;;17.50;59.20;;;;;;5071096;28;20119;-73
2023/07/14 05:33:12;;;;;;;5.35;2.47;;;17.70;58.60;;;;;;5072562;28;20044;-75
2023/07/14 05:35:39;;;;;;;3.35;1.83;;;17.80;58.40;;;;;;5071527;28;20023;-74
2023/07/14 05:38:05;;;;;;;4.18;2.38;;;18.10;58.30;;;;;;5071278;28;20028;-75
2023/07/14 05:40:31;;;;;;;4.28;1.70;;;18.20;57.50;;;;;;5070826;28;20059;-73
2023/07/14 05:42:58;;;;;;;3.60;1.48;;;18.40;57.20;;;;;;5071708;28;20033;-75
2023/07/14 05:45:23;;;;;;;8.68;2.20;;;18.40;56.80;;;;;;5070905;28;20036;-75
2023/07/14 05:47:49;;;;;;;5.32;2.00;;;18.60;56.50;;;;;;5071270;28;20033;-74
2023/07/14 05:50:15;;;;;;;4.85;2.15;;;18.80;56.00;;;;;;5071122;28;20476;-74
2023/07/14 05:52:42;;;;;;;4.78;1.90;;;18.90;55.00;;;;;;5071439;28;20032;-74
2023/07/14 05:55:08;;;;;;;9.45;2.20;;;19.10;54.40;;;;;;5071698;28;20031;-75
2023/07/14 05:57:36;;;;;;;5.03;1.95;;;19.30;53.70;;;;;;5071300;28;20028;-75
2023/07/14 06:00:05;;;;;;;7.75;2.03;;;19.40;53.40;;;;;;5071206;28;20499;-73
2023/07/14 06:02:31;;;;;;;2.95;1.70;;;19.50;53.10;;;;;;5071439;28;20362;-74
2023/07/14 06:04:57;;;;;;;3.80;2.03;;;19.60;52.80;;;;;;5071111;28;20032;-74
2023/07/14 06:07:25;;;;;;;5.93;2.00;;;19.70;52.00;;;;;;5071271;28;20082;-76
2023/07/14 06:09:50;;;;;;;4.65;2.10;;;19.90;51.80;;;;;;5071558;28;20050;-73
2023/07/14 06:12:16;;;;;;;19.83;3.60;;;20.10;50.40;;;;;;5071001;28;20048;-72
2023/07/14 06:14:42;;;;;;;11.02;2.08;;;20.30;50.40;;;;;;5071121;28;20024;-72
2023/07/14 06:17:10;;;;;;;5.07;2.00;;;20.50;49.10;;;;;;5071117;28;20077;-73
2023/07/14 06:19:37;;;;;;;3.00;1.67;;;20.80;47.90;;;;;;5071140;28;20029;-73
2023/07/14 06:22:04;;;;;;;6.30;2.10;;;20.90;46.50;;;;;;5071074;28;20044;-73
2023/07/14 06:24:30;;;;;;;10.65;3.70;;;21.00;46.30;;;;;;5071129;28;20024;-73
2023/07/14 06:26:56;;;;;;;12.15;2.53;;;21.00;45.40;;;;;;5070926;28;20385;-73
2023/07/14 06:29:22;;;;;;;6.53;2.78;;;20.90;45.90;;;;;;5070673;28;20035;-73
2023/07/14 06:31:47;;;;;;;4.45;2.03;;;20.90;46.20;;;;;;5072201;28;20024;-73
2023/07/14 06:34:13;;;;;;;19.20;2.95;;;20.90;45.60;;;;;;5071878;28;20037;-73
2023/07/14 06:36:39;;;;;;;5.38;1.98;;;21.10;45.20;;;;;;5072238;28;20021;-73
2023/07/14 06:39:06;;;;;;;6.80;1.70;;;21.30;45.00;;;;;;5071922;28;20032;-73
2023/07/14 06:41:32;;;;;;;5.30;1.75;;;21.50;43.50;;;;;;5072096;28;20496;-72
2023/07/14 06:44:00;;;;;;;7.82;1.60;;;21.60;42.60;;;;;;5071995;28;20033;-73
2023/07/14 06:46:26;;;;;;;4.50;1.35;;;21.60;41.80;;;;;;5072012;28;20020;-73
2023/07/14 06:48:51;;;;;;;3.45;1.20;;;21.70;42.10;;;;;;5071733;28;20055;-72
2023/07/14 06:51:17;;;;;;;4.53;1.65;;;21.60;40.50;;;;;;5071891;28;20040;-73
2023/07/14 06:53:42;;;;;;;4.22;1.38;;;21.60;41.30;;;;;;5075316;28;20114;-73
2023/07/14 06:56:08;;;;;;;3.75;1.38;;;21.80;40.70;;;;;;5075573;28;20056;-73
2023/07/14 06:58:34;;;;;;;3.70;1.48;;;21.90;41.00;;;;;;5075360;28;20024;-73
2023/07/14 07:01:01;;;;;;;3.92;1.27;;;21.90;40.40;;;;;;5075243;28;20020;-72
2023/07/14 07:03:27;;;;;;;4.45;1.73;;;21.90;40.30;;;;;;5075216;28;20028;-74
2023/07/14 07:05:53;;;;;;;6.80;1.40;;;21.90;39.60;;;;;;5075041;28;20479;-72
2023/07/14 07:08:19;;;;;;;4.28;1.35;;;21.80;39.30;;;;;;5075059;28;20426;-73
2023/07/14 07:10:45;;;;;;;6.05;1.73;;;21.80;39.90;;;;;;5074942;28;20028;-72
2023/07/14 07:13:11;;;;;;;3.00;1.50;;;21.90;39.70;;;;;;5074822;28;20111;-72
2023/07/14 07:15:38;;;;;;;6.45;1.73;;;22.00;40.20;;;;;;5074639;28;20049;-73
2023/07/14 07:18:03;;;;;;;10.27;2.20;;;22.30;40.00;;;;;;5074509;28;20039;-73
2023/07/14 07:20:30;;;;;;;6.40;1.80;;;22.50;39.00;;;;;;5073179;28;20060;-73
2023/07/14 07:22:56;;;;;;;4.55;1.83;;;22.60;38.50;;;;;;5074455;28;20539;-73
2023/07/14 07:25:21;;;;;;;4.00;1.65;;;22.50;38.40;;;;;;5074631;28;20021;-73
2023/07/14 07:27:48;;;;;;;5.20;1.50;;;22.50;38.10;;;;;;5074463;28;20491;-72
2023/07/14 07:30:14;;;;;;;4.30;1.60;;;22.40;39.00;;;;;;5073900;28;20103;-73
2023/07/14 07:32:41;;;;;;;4.90;1.45;;;22.40;39.00;;;;;;5074471;28;20029;-73
2023/07/14 07:35:08;;;;;;;6.45;1.75;;;22.50;39.00;;;;;;5074506;28;20039;-74
2023/07/14 07:37:34;;;;;;;3.22;1.40;;;22.50;38.70;;;;;;5074614;28;20063;-71
2023/07/14 07:40:02;;;;;;;4.38;1.60;;;22.60;38.90;;;;;;5074683;28;20056;-73
2023/07/14 07:42:28;;;;;;;5.07;1.70;;;22.80;39.30;;;;;;5074579;28;20040;-73
2023/07/14 07:44:54;;;;;;;5.07;1.63;;;22.90;38.60;;;;;;5074540;28;20415;-73
2023/07/14 07:47:20;;;;;;;3.55;1.15;;;23.00;38.50;;;;;;5074531;28;20028;-73
2023/07/14 07:49:46;;;;;;;4.20;1.70;;;23.20;38.20;;;;;;5074533;28;20021;-72
2023/07/14 07:52:12;;;;;;;2.65;1.55;;;23.10;37.50;;;;;;5074487;28;20028;-73
2023/07/14 07:54:41;;;;;;;2.55;1.38;;;23.10;38.00;;;;;;5074307;28;20108;-73
2023/07/14 07:57:08;;;;;;;3.53;1.35;;;23.10;38.20;;;;;;5074327;28;20040;-73
2023/07/14 07:59:33;;;;;;;4.03;1.45;;;23.30;38.10;;;;;;5074076;28;20032;-72
2023/07/14 08:01:59;;;;;;;2.97;1.38;;;23.50;38.60;;;;;;5074259;28;20093;-73
2023/07/14 08:04:26;;;;;;;3.10;1.48;;;23.70;38.10;;;;;;5074292;28;20099;-74
2023/07/14 08:06:51;;;;;;;1.70;1.10;;;23.90;37.70;;;;;;5074067;28;20411;-74
2023/07/14 08:09:17;;;;;;;3.20;1.38;;;24.10;36.90;;;;;;5074084;28;20027;-74
2023/07/14 08:11:43;;;;;;;7.03;1.52;;;24.30;37.00;;;;;;5073958;28;20043;-73
2023/07/14 08:14:15;;;;;;;4.60;1.25;;;24.30;36.40;;;;;;5072611;28;20021;-73
2023/07/14 08:16:41;;;;;;;2.50;1.58;;;24.50;36.60;;;;;;5072414;28;20016;-74
2023/07/14 08:19:07;;;;;;;3.35;1.42;;;24.50;36.20;;;;;;5073867;28;20025;-74
2023/07/14 08:21:36;;;;;;;3.40;1.30;;;24.60;36.50;;;;;;5073814;28;20117;-73
2023/07/14 08:24:02;;;;;;;3.00;1.23;;;24.70;36.10;;;;;;5072685;28;20070;-72
2023/07/14 08:26:27;;;;;;;9.00;1.40;;;24.80;36.30;;;;;;5072819;28;20047;-72
2023/07/14 08:28:53;;;;;;;5.07;1.38;;;24.80;36.40;;;;;;5072443;28;20489;-73
2023/07/14 08:31:19;;;;;;;6.38;1.77;;;24.90;36.60;;;;;;5072551;28;20029;-72
2023/07/14 08:33:44;;;;;;;2.10;1.30;;;25.00;36.30;;;;;;5073534;28;20040;-72
2023/07/14 08:36:12;;;;;;;2.47;1.40;;;25.00;34.70;;;;;;5073502;28;20060;-72
2023/07/14 08:38:39;;;;;;;5.05;1.45;;;24.90;35.80;;;;;;5073508;28;20032;-73
2023/07/14 08:41:30;;;;;;;5.03;1.65;;;25.10;36.20;;;;;;5073392;28;20071;-72
2023/07/14 08:44:17;;;;;;;3.42;1.10;;;25.00;34.80;;;;;;5072906;28;20390;-73
2023/07/14 08:47:10;;;;;;;4.35;1.33;;;24.80;35.60;;;;;;5073174;28;20021;-73
2023/07/14 08:49:57;;;;;;;2.88;1.60;;;24.80;36.90;;;;;;5072829;28;20361;-72
2023/07/14 08:52:34;;;;;;;7.03;1.65;;;24.90;35.90;;;;;;5071927;28;20029;-73
2023/07/14 08:55:06;;;;;;;2.75;1.42;;;25.00;36.30;;;;;;5072875;28;20024;-73
2023/07/14 08:58:00;;;;;;;6.25;1.92;;;25.20;36.00;;;;;;5072698;28;20078;-73
2023/07/14 09:00:43;;;;;;;3.55;1.42;;;25.10;35.80;;;;;;5071876;28;20040;-75
2023/07/14 09:03:41;;;;;;;3.45;1.35;;;25.20;35.20;;;;;;5072818;28;20017;-73
2023/07/14 09:06:24;;;;;;;4.22;1.50;;;25.30;36.10;;;;;;5071405;28;20428;-73
2023/07/14 09:08:51;;;;;;;3.20;1.40;;;25.50;36.00;;;;;;5073169;28;20388;-73
2023/07/14 09:11:41;;;;;;;4.25;1.42;;;25.60;35.20;;;;;;5071549;28;20028;-72
2023/07/14 09:14:11;;;;;;;2.63;1.23;;;25.70;35.20;;;;;;5072627;28;20036;-72
2023/07/14 09:16:43;;;;;;;1.90;0.98;;;25.80;35.70;;;;;;5072273;28;20035;-72
2023/07/14 09:19:27;;;;;;;4.93;1.38;;;25.90;35.50;;;;;;5088763;28;20105;-72
2023/07/14 09:22:04;;;;;;;3.00;1.30;;;25.90;34.10;;;;;;5071626;28;20054;-72
2023/07/14 09:24:37;;;;;;;7.75;1.55;;;25.80;34.20;;;;;;5071486;28;20123;-73
2023/07/14 09:27:08;;;;;;;5.00;1.60;;;25.80;34.80;;;;;;5072634;28;20025;-72
2023/07/14 09:29:37;;;;;;;5.65;1.85;;;25.80;34.30;;;;;;5072875;28;20047;-72
2023/07/14 09:32:10;;;;;;;6.22;1.35;;;25.60;35.00;;;;;;5071268;28;20509;-72
2023/07/14 09:34:40;;;;;;;4.57;1.40;;;25.40;34.70;;;;;;5072578;28;20484;-73
2023/07/14 09:37:17;;;;;;;2.60;1.20;;;25.30;35.90;;;;;;5071315;28;20073;-72
2023/07/14 09:39:45;;;;;;;2.25;1.20;;;25.60;36.10;;;;;;5071422;28;20021;-74
2023/07/14 09:42:18;;;;;;;2.80;1.30;;;25.80;35.50;;;;;;5072639;28;20024;-71
2023/07/14 09:44:44;;;;;;;4.68;1.48;;;26.00;36.10;;;;;;5071303;28;20028;-73
2023/07/14 09:47:10;;;;;;;5.65;1.77;;;26.10;34.70;;;;;;5088017;28;20025;-72
2023/07/14 09:49:46;;;;;;;1.77;1.05;;;26.00;34.00;;;;;;5071049;28;20024;-72
2023/07/14 09:52:23;;;;;;;4.03;1.50;;;25.90;34.30;;;;;;5070342;28;20123;-72
2023/07/14 09:54:52;;;;;;;3.33;1.30;;;26.00;35.20;;;;;;5071785;28;20404;-72
2023/07/14 09:57:21;;;;;;;1.58;1.00;;;25.90;34.20;;;;;;5071905;28;20108;-71
2023/07/14 09:59:54;;;;;;;2.10;1.23;;;25.80;34.10;;;;;;5071880;28;20031;-72
2023/07/14 10:02:29;;;;;;;2.10;1.40;;;25.80;34.50;;;;;;5072221;28;20031;-74
2023/07/14 10:05:00;;;;;;;3.20;1.40;;;25.90;34.90;;;;;;5072395;28;20020;-74
2023/07/14 10:07:26;;;;;;;3.35;1.58;;;25.90;34.10;;;;;;5072193;28;20107;-73
2023/07/14 10:09:59;;;;;;;4.93;1.38;;;25.90;35.20;;;;;;5070845;28;20052;-74
2023/07/14 10:12:34;;;;;;;2.88;1.42;;;26.00;35.40;;;;;;5072417;28;20036;-73
2023/07/14 10:15:00;;;;;;;1.85;1.20;;;26.00;35.30;;;;;;5072319;28;20028;-73
2023/07/14 10:17:27;;;;;;;3.88;1.33;;;26.20;35.00;;;;;;5070319;28;20020;-74
2023/07/14 10:19:56;;;;;;;3.50;1.17;;;26.40;35.10;;;;;;5071681;28;20392;-72
2023/07/14 10:22:28;;;;;;;2.40;1.52;;;26.60;34.70;;;;;;5072010;28;20024;-71
2023/07/14 10:24:58;;;;;;;2.50;1.20;;;26.70;34.50;;;;;;5070683;28;20454;-74
2023/07/14 10:27:26;;;;;;;4.55;1.50;;;26.80;33.60;;;;;;5074105;28;20017;-72
2023/07/14 10:29:58;;;;;;;3.50;1.52;;;26.70;32.70;;;;;;5076013;28;20115;-73
2023/07/14 10:32:33;;;;;;;3.13;1.60;;;26.70;33.50;;;;;;5075477;28;20036;-72
2023/07/14 10:35:13;;;;;;;5.13;1.50;;;26.80;34.20;;;;;;5075531;28;20021;-73
2023/07/14 10:37:44;;;;;;;4.88;1.70;;;27.00;34.20;;;;;;5076017;28;20021;-73
2023/07/14 10:40:17;;;;;;;2.28;1.17;;;27.10;35.00;;;;;;5075481;28;20020;-76
2023/07/14 10:43:03;;;;;;;2.85;1.55;;;27.20;34.50;;;;;;5075625;28;20024;-76
2023/07/14 10:45:32;;;;;;;1.90;1.38;;;27.20;33.00;;;;;;5075954;28;20103;-74
2023/07/14 10:48:17;;;;;;;2.72;1.10;;;27.30;33.80;;;;;;5076019;28;20028;-72
2023/07/14 10:50:54;;;;;;;3.95;1.27;;;27.40;33.40;;;;;;5075716;28;20039;-73
2023/07/14 10:53:36;;;;;;;9.85;7.10;;;27.80;33.30;;;;;;5075261;28;20036;-73
2023/07/14 10:56:14;;;;;;;3.90;1.70;;;28.00;33.20;;;;;;5075320;28;20028;-73
2023/07/14 10:58:48;;;;;;;1.77;1.15;;;28.10;32.60;;;;;;5075214;28;20025;-74
2023/07/14 11:01:28;;;;;;;2.35;0.90;;;28.50;31.80;;;;;;5074122;28;20020;-72
2023/07/14 11:04:16;;;;;;;2.47;1.50;;;28.60;30.70;;;;;;5073958;28;20047;-73
2023/07/14 11:06:48;;;;;;;1.77;1.10;;;28.60;31.40;;;;;;5075545;28;20048;-72
2023/07/14 11:09:14;;;;;;;4.13;1.42;;;28.70;31.80;;;;;;5075544;28;20100;-72
2023/07/14 11:11:58;;;;;;;2.83;1.30;;;28.80;31.30;;;;;;5075316;28;20073;-74
2023/07/14 11:14:23;;;;;;;3.92;1.30;;;28.90;31.40;;;;;;5075330;28;20546;-73
2023/07/14 11:16:57;;;;;;;2.05;1.45;;;28.80;29.30;;;;;;5073888;28;20032;-74
2023/07/14 11:19:32;;;;;;;3.75;1.70;;;28.80;30.20;;;;;;5073776;28;20412;-72
2023/07/14 11:22:29;;;;;;;2.17;1.33;;;28.80;31.50;;;;;;5074960;28;20037;-71
2023/07/14 11:25:13;;;;;;;2.00;1.13;;;29.00;31.10;;;;;;5075064;28;20032;-73
2023/07/14 11:27:57;;;;;;;1.77;1.13;;;29.30;29.60;;;;;;5075174;28;20025;-72
2023/07/14 11:30:29;;;;;;;5.10;1.60;;;29.20;30.50;;;;;;5075091;28;20024;-72
2023/07/14 11:33:22;;;;;;;2.33;1.08;;;29.40;29.40;;;;;;5075045;28;20037;-73
2023/07/14 11:36:07;;;;;;;2.42;1.10;;;29.50;29.10;;;;;;5075050;28;20021;-73
2023/07/14 11:39:03;;;;;;;2.08;1.13;;;29.40;28.20;;;;;;5074194;28;20070;-73
2023/07/14 11:41:31;;;;;;;2.65;1.05;;;29.40;29.20;;;;;;5075033;28;20070;-73
2023/07/14 11:44:00;;;;;;;2.63;1.58;;;29.40;29.90;;;;;;5075020;28;20029;-74
2023/07/14 11:46:26;;;;;;;2.33;1.10;;;29.40;28.80;;;;;;5090715;28;20028;-72
2023/07/14 11:48:52;;;;;;;2.30;1.40;;;29.40;29.10;;;;;;5074861;28;20156;-72
2023/07/14 11:51:19;;;;;;;2.25;1.10;;;29.20;28.50;;;;;;5074034;28;20483;-73
2023/07/14 11:54:24;;;;;;;2.63;1.33;;;29.00;27.80;;;;;;5074862;28;20404;-72
2023/07/14 11:57:01;;;;;;;3.03;1.25;;;29.30;29.50;;;;;;5062663;28;20480;-73
2023/07/14 11:59:29;;;;;;;2.40;0.95;;;29.30;27.70;;;;;;5075062;28;20055;-72
2023/07/14 12:02:15;;;;;;;1.67;1.15;;;29.10;27.90;;;;;;5074389;28;20023;-71
2023/07/14 12:04:40;;;;;;;;;;;29.10;28.80;;;;;;5056627;28;20031;-73
2023/07/14 12:07:19;;;;;;;3.25;1.45;;;29.10;29.90;;;;;;5073362;28;19908;-72
2023/07/14 12:09:57;;;;;;;3.67;1.20;;;29.00;29.70;;;;;;5074289;28;20076;-74
2023/07/14 12:12:23;;;;;;;3.25;1.20;;;29.00;29.50;;;;;;5074199;28;20033;-73
2023/07/14 12:14:50;;;;;;;3.35;1.38;;;29.00;29.40;;;;;;5074283;28;20147;-74
2023/07/14 12:17:34;;;;;;;2.03;1.33;;;28.90;28.50;;;;;;5073956;28;20373;-73
2023/07/14 12:20:13;;;;;;;7.47;1.52;;;28.60;28.00;;;;;;5072921;28;20403;-73
2023/07/14 12:23:04;;;;;;;6.00;1.40;;;28.40;29.20;;;;;;5074157;28;20070;-73
2023/07/14 12:25:38;;;;;;;1.80;1.13;;;28.50;30.00;;;;;;5074213;28;20028;-73
2023/07/14 12:28:07;;;;;;;2.45;1.27;;;28.60;30.30;;;;;;5074372;28;20096;-73
2023/07/14 12:30:33;;;;;;;1.92;1.23;;;29.00;30.40;;;;;;5073505;28;20438;-73
2023/07/14 12:33:04;;;;;;;2.45;1.35;;;29.20;29.70;;;;;;5072663;28;20079;-74
2023/07/14 12:35:32;;;;;;;2.80;1.38;;;29.20;28.60;;;;;;5072500;28;20025;-73
2023/07/14 12:38:33;;;;;;;11.43;8.10;;;29.40;28.60;;;;;;5072958;28;20161;-74
2023/07/14 12:41:01;;;;;;;8.45;7.53;;;29.90;27.80;;;;;;5040689;28;20058;-73
2023/07/14 12:43:36;;;;;;;3.90;1.60;;;30.40;27.00;;;;;;5073785;28;20024;-73
2023/07/14 12:46:31;;;;;;;2.75;1.38;;;30.40;24.60;;;;;;5073712;28;20060;-73
2023/07/14 12:49:30;;;;;;;3.08;1.50;;;30.50;25.50;;;;;;5072382;28;20027;-73
2023/07/14 12:51:55;;;;;;;3.13;1.77;;;30.80;26.40;;;;;;5072148;28;20130;-73
2023/07/14 12:54:27;;;;;;;2.95;1.35;;;31.20;25.40;;;;;;5072058;28;20112;-73
2023/07/14 12:57:00;;;;;;;1.45;1.33;;;31.50;24.90;;;;;;5071807;28;20027;-75
2023/07/14 12:59:26;;;;;;;1.67;1.10;;;31.80;24.30;;;;;;5071920;28;20417;-74
2023/07/14 13:01:52;;;;;;;2.85;1.33;;;32.20;23.00;;;;;;5073159;28;20024;-73
2023/07/14 13:04:20;;;;;;;3.40;1.35;;;32.30;22.40;;;;;;5072833;28;20020;-73